sensor_id;sensor_type;location;lat;lon;timestamp;P1;durP1;ratioP1;P2;durP2;ratioP2
44126;SDS011;29786;50.798;7.302;2022-12-07T00:00:22;292.5;;;46.1;;
44126;SDS011;29786;50.798;7.302;2022-12-07T00:01:23;238.1;;;45.3;;
44126;SDS011;29786;50.798;7.302;2022-12-07T00:02:22;366.7;;;54.4;;
44126;SDS011;29786;50.798;7.302;2022-12-07T00:03:22;274.9;;;49.3;;
44126;SDS011;29786;50.798;7.302;2022-12-07T00:04:22;402.3;;;52.7;;
44126;SDS011;29786;50.798;7.302;2022-12-07T00:05:22;703.6;;;72.8;;
44126;SDS011;29786;50.798;7.302;2022-12-07T00:06:22;731;;;72.7;;
44126;SDS011;29786;50.798;7.302;2022-12-07T00:07:22;839.2;;;83;;
44126;SDS011;29786;50.798;7.302;2022-12-07T00:08:22;914;;;85.3;;
44126;SDS011;29786;50.798;7.302;2022-12-07T00:09:22;1023.4;;;96.8;;
44126;SDS011;29786;50.798;7.302;2022-12-07T00:10:22;1102.2;;;107.9;;
44126;SDS011;29786;50.798;7.302;2022-12-07T00:11:22;948;;;95.4;;
44126;SDS011;29786;50.798;7.302;2022-12-07T00:12:22;772.2;;;80.8;;
44126;SDS011;29786;50.798;7.302;2022-12-07T00:13:22;1014.1;;;98.8;;
44126;SDS011;29786;50.798;7.302;2022-12-07T00:14:22;1031.5;;;90;;
44126;SDS011;29786;50.798;7.302;2022-12-07T00:15:22;1132.6;;;107.8;;
44126;SDS011;29786;50.798;7.302;2022-12-07T00:16:23;823.9;;;82.9;;
44126;SDS011;29786;50.798;7.302;2022-12-07T00:17:22;761.1;;;71.3;;
44126;SDS011;29786;50.798;7.302;2022-12-07T00:18:22;1207.1;;;108.3;;
44126;SDS011;29786;50.798;7.302;2022-12-07T00:19:22;1091.6;;;101.8;;
44126;SDS011;29786;50.798;7.302;2022-12-07T00:20:22;1248.5;;;112.3;;
44126;SDS011;29786;50.798;7.302;2022-12-07T00:21:23;848.4;;;84.4;;
44126;SDS011;29786;50.798;7.302;2022-12-07T00:22:22;1225.6;;;112.1;;
44126;SDS011;29786;50.798;7.302;2022-12-07T00:23:22;1014;;;100.3;;
44126;SDS011;29786;50.798;7.302;2022-12-07T00:24:22;999;;;91.9;;
44126;SDS011;29786;50.798;7.302;2022-12-07T00:25:22;1364.7;;;127.9;;
44126;SDS011;29786;50.798;7.302;2022-12-07T00:26:23;947.8;;;89.6;;
44126;SDS011;29786;50.798;7.302;2022-12-07T00:27:22;1251.4;;;106;;
44126;SDS011;29786;50.798;7.302;2022-12-07T00:28:22;1291.8;;;117.6;;
44126;SDS011;29786;50.798;7.302;2022-12-07T00:29:22;1140.8;;;96.7;;
44126;SDS011;29786;50.798;7.302;2022-12-07T00:30:22;1227.3;;;119;;
44126;SDS011;29786;50.798;7.302;2022-12-07T00:31:23;656.5;;;71.7;;
44126;SDS011;29786;50.798;7.302;2022-12-07T00:32:22;1282.1;;;126.9;;
44126;SDS011;29786;50.798;7.302;2022-12-07T00:33:22;1181.3;;;114.5;;
44126;SDS011;29786;50.798;7.302;2022-12-07T00:34:22;1163.2;;;104.2;;
44126;SDS011;29786;50.798;7.302;2022-12-07T00:35:22;1100.5;;;105.6;;
44126;SDS011;29786;50.798;7.302;2022-12-07T00:36:22;1355.5;;;122.8;;
44126;SDS011;29786;50.798;7.302;2022-12-07T00:37:22;1429.1;;;129.7;;
44126;SDS011;29786;50.798;7.302;2022-12-07T00:38:22;1288;;;111.1;;
44126;SDS011;29786;50.798;7.302;2022-12-07T00:39:22;1159.2;;;108.3;;
44126;SDS011;29786;50.798;7.302;2022-12-07T00:40:22;1251.1;;;108.6;;
44126;SDS011;29786;50.798;7.302;2022-12-07T00:41:23;1555.3;;;135.5;;
44126;SDS011;29786;50.798;7.302;2022-12-07T00:42:22;1703.2;;;152;;
44126;SDS011;29786;50.798;7.302;2022-12-07T00:43:22;1137.7;;;102;;
44126;SDS011;29786;50.798;7.302;2022-12-07T00:44:22;1091.3;;;105.7;;
44126;SDS011;29786;50.798;7.302;2022-12-07T00:45:22;1254.4;;;112.3;;
44126;SDS011;29786;50.798;7.302;2022-12-07T00:46:22;1538.4;;;132.3;;
44126;SDS011;29786;50.798;7.302;2022-12-07T00:47:22;1331.8;;;116.1;;
44126;SDS011;29786;50.798;7.302;2022-12-07T00:48:22;900.4;;;89.6;;
44126;SDS011;29786;50.798;7.302;2022-12-07T00:49:22;1422.6;;;133;;
44126;SDS011;29786;50.798;7.302;2022-12-07T00:50:22;1328.3;;;118;;
44126;SDS011;29786;50.798;7.302;2022-12-07T00:51:22;1324.1;;;124;;
44126;SDS011;29786;50.798;7.302;2022-12-07T00:52:22;1408.7;;;125.1;;
44126;SDS011;29786;50.798;7.302;2022-12-07T00:53:22;1237.6;;;115.5;;
44126;SDS011;29786;50.798;7.302;2022-12-07T00:54:22;1531;;;141;;
44126;SDS011;29786;50.798;7.302;2022-12-07T00:55:22;1184.3;;;118.4;;
44126;SDS011;29786;50.798;7.302;2022-12-07T00:56:23;1155.5;;;112.9;;
44126;SDS011;29786;50.798;7.302;2022-12-07T00:57:22;1366.7;;;133.5;;
44126;SDS011;29786;50.798;7.302;2022-12-07T00:58:22;1147.5;;;121;;
44126;SDS011;29786;50.798;7.302;2022-12-07T00:59:22;1185;;;120.2;;
44126;SDS011;29786;50.798;7.302;2022-12-07T01:00:22;1122.4;;;118.6;;
44126;SDS011;29786;50.798;7.302;2022-12-07T01:01:22;1251.7;;;134.8;;
44126;SDS011;29786;50.798;7.302;2022-12-07T01:02:22;1166;;;117.5;;
44126;SDS011;29786;50.798;7.302;2022-12-07T01:03:22;1279.8;;;123.7;;
44126;SDS011;29786;50.798;7.302;2022-12-07T01:04:22;1013.3;;;109.7;;
44126;SDS011;29786;50.798;7.302;2022-12-07T01:05:22;924.1;;;100.1;;
44126;SDS011;29786;50.798;7.302;2022-12-07T01:06:22;878.4;;;102.4;;
44126;SDS011;29786;50.798;7.302;2022-12-07T01:07:22;715.3;;;90.9;;
44126;SDS011;29786;50.798;7.302;2022-12-07T01:08:22;747.4;;;94.6;;
44126;SDS011;29786;50.798;7.302;2022-12-07T01:09:22;896.8;;;100.8;;
44126;SDS011;29786;50.798;7.302;2022-12-07T01:10:22;633.5;;;83.1;;
44126;SDS011;29786;50.798;7.302;2022-12-07T01:11:23;477.4;;;75.9;;
44126;SDS011;29786;50.798;7.302;2022-12-07T01:12:22;648.4;;;88.1;;
44126;SDS011;29786;50.798;7.302;2022-12-07T01:13:22;647.1;;;89.9;;
44126;SDS011;29786;50.798;7.302;2022-12-07T01:14:22;382.8;;;67.3;;
44126;SDS011;29786;50.798;7.302;2022-12-07T01:15:22;487.8;;;77.9;;
44126;SDS011;29786;50.798;7.302;2022-12-07T01:16:22;279.4;;;64;;
44126;SDS011;29786;50.798;7.302;2022-12-07T01:17:22;257.5;;;61.8;;
44126;SDS011;29786;50.798;7.302;2022-12-07T01:18:22;403.3;;;72.1;;
44126;SDS011;29786;50.798;7.302;2022-12-07T01:19:22;201.1;;;58.9;;
44126;SDS011;29786;50.798;7.302;2022-12-07T01:20:22;283.5;;;63;;
44126;SDS011;29786;50.798;7.302;2022-12-07T01:21:23;276;;;66.1;;
44126;SDS011;29786;50.798;7.302;2022-12-07T01:22:22;301;;;64.4;;
44126;SDS011;29786;50.798;7.302;2022-12-07T01:23:22;367.3;;;70.4;;
44126;SDS011;29786;50.798;7.302;2022-12-07T01:24:22;387.9;;;73.1;;
44126;SDS011;29786;50.798;7.302;2022-12-07T01:25:22;535.5;;;83.6;;
44126;SDS011;29786;50.798;7.302;2022-12-07T01:26:22;367.7;;;72.6;;
44126;SDS011;29786;50.798;7.302;2022-12-07T01:27:22;283.9;;;66.9;;
44126;SDS011;29786;50.798;7.302;2022-12-07T01:28:22;240.4;;;63.3;;
44126;SDS011;29786;50.798;7.302;2022-12-07T01:29:22;329.5;;;69.9;;
44126;SDS011;29786;50.798;7.302;2022-12-07T01:30:22;423.3;;;76;;
44126;SDS011;29786;50.798;7.302;2022-12-07T01:31:23;522.8;;;85.7;;
44126;SDS011;29786;50.798;7.302;2022-12-07T01:32:22;356.6;;;77;;
44126;SDS011;29786;50.798;7.302;2022-12-07T01:33:22;202.4;;;61.5;;
44126;SDS011;29786;50.798;7.302;2022-12-07T01:34:22;249.9;;;67.5;;
44126;SDS011;29786;50.798;7.302;2022-12-07T01:35:22;228.3;;;65.8;;
44126;SDS011;29786;50.798;7.302;2022-12-07T01:36:22;245.1;;;65.5;;
44126;SDS011;29786;50.798;7.302;2022-12-07T01:37:22;198;;;60.3;;
44126;SDS011;29786;50.798;7.302;2022-12-07T01:38:22;194.1;;;61;;
44126;SDS011;29786;50.798;7.302;2022-12-07T01:39:22;220.3;;;64.5;;
44126;SDS011;29786;50.798;7.302;2022-12-07T01:40:22;220.9;;;66;;
44126;SDS011;29786;50.798;7.302;2022-12-07T01:41:22;240.1;;;64;;
44126;SDS011;29786;50.798;7.302;2022-12-07T01:42:22;238.4;;;65.7;;
44126;SDS011;29786;50.798;7.302;2022-12-07T01:43:22;229.5;;;63.3;;
44126;SDS011;29786;50.798;7.302;2022-12-07T01:44:23;226.7;;;64.9;;
44126;SDS011;29786;50.798;7.302;2022-12-07T01:45:38;225.2;;;66.1;;
44126;SDS011;29786;50.798;7.302;2022-12-07T01:46:22;247;;;66.7;;
44126;SDS011;29786;50.798;7.302;2022-12-07T01:47:22;260.1;;;67.1;;
44126;SDS011;29786;50.798;7.302;2022-12-07T01:48:23;278.1;;;70.9;;
44126;SDS011;29786;50.798;7.302;2022-12-07T01:49:38;227.8;;;64.8;;
44126;SDS011;29786;50.798;7.302;2022-12-07T01:50:23;220.1;;;65.8;;
44126;SDS011;29786;50.798;7.302;2022-12-07T01:51:22;233.4;;;68.9;;
44126;SDS011;29786;50.798;7.302;2022-12-07T01:52:23;245.1;;;67.4;;
44126;SDS011;29786;50.798;7.302;2022-12-07T01:53:23;243.4;;;68.2;;
44126;SDS011;29786;50.798;7.302;2022-12-07T01:54:22;216.6;;;64.9;;
44126;SDS011;29786;50.798;7.302;2022-12-07T01:55:22;220;;;66.2;;
44126;SDS011;29786;50.798;7.302;2022-12-07T01:56:23;201;;;63.8;;
44126;SDS011;29786;50.798;7.302;2022-12-07T01:57:22;259.9;;;67.9;;
44126;SDS011;29786;50.798;7.302;2022-12-07T01:58:22;287;;;71.3;;
44126;SDS011;29786;50.798;7.302;2022-12-07T01:59:22;283.8;;;70.9;;
44126;SDS011;29786;50.798;7.302;2022-12-07T02:00:22;270.9;;;73;;
44126;SDS011;29786;50.798;7.302;2022-12-07T02:01:22;331.5;;;76;;
44126;SDS011;29786;50.798;7.302;2022-12-07T02:02:25;292.6;;;71.6;;
44126;SDS011;29786;50.798;7.302;2022-12-07T02:03:24;312.5;;;76.8;;
44126;SDS011;29786;50.798;7.302;2022-12-07T02:04:22;279.4;;;74.9;;
44126;SDS011;29786;50.798;7.302;2022-12-07T02:05:22;324.5;;;77.2;;
44126;SDS011;29786;50.798;7.302;2022-12-07T02:06:22;265.7;;;73.4;;
44126;SDS011;29786;50.798;7.302;2022-12-07T02:07:22;275.3;;;72.5;;
44126;SDS011;29786;50.798;7.302;2022-12-07T02:08:22;503.9;;;87.1;;
44126;SDS011;29786;50.798;7.302;2022-12-07T02:09:22;683.6;;;103.5;;
44126;SDS011;29786;50.798;7.302;2022-12-07T02:10:23;406.5;;;86.4;;
44126;SDS011;29786;50.798;7.302;2022-12-07T02:11:22;324.4;;;75.8;;
44126;SDS011;29786;50.798;7.302;2022-12-07T02:12:22;243.9;;;70;;
44126;SDS011;29786;50.798;7.302;2022-12-07T02:13:22;429.8;;;89.7;;
44126;SDS011;29786;50.798;7.302;2022-12-07T02:14:22;309.8;;;74.9;;
44126;SDS011;29786;50.798;7.302;2022-12-07T02:15:22;343.9;;;78;;
44126;SDS011;29786;50.798;7.302;2022-12-07T02:16:25;323.8;;;78.5;;
44126;SDS011;29786;50.798;7.302;2022-12-07T02:17:25;422.9;;;86.9;;
44126;SDS011;29786;50.798;7.302;2022-12-07T02:19:33;328.8;;;78.6;;
44126;SDS011;29786;50.798;7.302;2022-12-07T02:20:28;334.9;;;77.8;;
44126;SDS011;29786;50.798;7.302;2022-12-07T02:21:27;381.8;;;82;;
44126;SDS011;29786;50.798;7.302;2022-12-07T02:22:34;312.8;;;79.5;;
44126;SDS011;29786;50.798;7.302;2022-12-07T02:23:29;368.3;;;82.8;;
44126;SDS011;29786;50.798;7.302;2022-12-07T02:25:27;529.5;;;96;;
44126;SDS011;29786;50.798;7.302;2022-12-07T02:26:59;526.4;;;94.7;;
44126;SDS011;29786;50.798;7.302;2022-12-07T02:27:28;487.2;;;92.9;;
44126;SDS011;29786;50.798;7.302;2022-12-07T02:28:26;424.9;;;85.4;;
44126;SDS011;29786;50.798;7.302;2022-12-07T02:29:22;429.7;;;90.8;;
44126;SDS011;29786;50.798;7.302;2022-12-07T02:30:22;466.7;;;91.3;;
44126;SDS011;29786;50.798;7.302;2022-12-07T02:31:22;404.7;;;85.8;;
44126;SDS011;29786;50.798;7.302;2022-12-07T02:32:24;582.3;;;99.8;;
44126;SDS011;29786;50.798;7.302;2022-12-07T02:33:31;448;;;92.7;;
44126;SDS011;29786;50.798;7.302;2022-12-07T02:34:26;286.2;;;81.9;;
44126;SDS011;29786;50.798;7.302;2022-12-07T02:35:25;308.1;;;80.2;;
44126;SDS011;29786;50.798;7.302;2022-12-07T02:36:25;285.9;;;78.5;;
44126;SDS011;29786;50.798;7.302;2022-12-07T02:37:26;363.5;;;83.9;;
44126;SDS011;29786;50.798;7.302;2022-12-07T02:38:25;285.7;;;76.9;;
44126;SDS011;29786;50.798;7.302;2022-12-07T02:39:26;331.3;;;81.7;;
44126;SDS011;29786;50.798;7.302;2022-12-07T02:40:23;409.3;;;88.6;;
44126;SDS011;29786;50.798;7.302;2022-12-07T02:41:24;437.4;;;92.3;;
44126;SDS011;29786;50.798;7.302;2022-12-07T02:42:23;386.4;;;82.6;;
44126;SDS011;29786;50.798;7.302;2022-12-07T02:43:23;264.3;;;78.8;;
44126;SDS011;29786;50.798;7.302;2022-12-07T02:44:23;332.4;;;83.2;;
44126;SDS011;29786;50.798;7.302;2022-12-07T02:45:22;428.8;;;87.3;;
44126;SDS011;29786;50.798;7.302;2022-12-07T02:46:23;787.8;;;114.2;;
44126;SDS011;29786;50.798;7.302;2022-12-07T02:47:22;527.7;;;94.1;;
44126;SDS011;29786;50.798;7.302;2022-12-07T02:48:22;560.7;;;102.2;;
44126;SDS011;29786;50.798;7.302;2022-12-07T02:49:22;508.4;;;96.7;;
44126;SDS011;29786;50.798;7.302;2022-12-07T02:50:22;315;;;78.6;;
44126;SDS011;29786;50.798;7.302;2022-12-07T02:51:22;428.7;;;90.6;;
44126;SDS011;29786;50.798;7.302;2022-12-07T02:52:22;315.4;;;80.9;;
44126;SDS011;29786;50.798;7.302;2022-12-07T02:53:38;275.5;;;77.8;;
44126;SDS011;29786;50.798;7.302;2022-12-07T02:54:22;247.1;;;68.6;;
44126;SDS011;29786;50.798;7.302;2022-12-07T02:55:23;242.2;;;70.9;;
44126;SDS011;29786;50.798;7.302;2022-12-07T02:58:24;339;;;81.1;;
44126;SDS011;29786;50.798;7.302;2022-12-07T03:00:22;301.5;;;78.2;;
44126;SDS011;29786;50.798;7.302;2022-12-07T03:01:32;356.9;;;82.8;;
44126;SDS011;29786;50.798;7.302;2022-12-07T03:02:25;341.2;;;78.8;;
44126;SDS011;29786;50.798;7.302;2022-12-07T03:03:22;268.8;;;76;;
44126;SDS011;29786;50.798;7.302;2022-12-07T03:04:41;285.4;;;77.9;;
44126;SDS011;29786;50.798;7.302;2022-12-07T03:05:30;283.8;;;78.8;;
44126;SDS011;29786;50.798;7.302;2022-12-07T03:06:26;269.1;;;75.3;;
44126;SDS011;29786;50.798;7.302;2022-12-07T03:07:33;316.8;;;81.9;;
44126;SDS011;29786;50.798;7.302;2022-12-07T03:08:29;287.8;;;78.6;;
44126;SDS011;29786;50.798;7.302;2022-12-07T03:09:27;345.4;;;81.5;;
44126;SDS011;29786;50.798;7.302;2022-12-07T03:11:24;312.6;;;84.3;;
44126;SDS011;29786;50.798;7.302;2022-12-07T03:11:34;258.6;;;73.8;;
44126;SDS011;29786;50.798;7.302;2022-12-07T03:12:24;336.6;;;81.8;;
44126;SDS011;29786;50.798;7.302;2022-12-07T03:13:24;337.6;;;82.4;;
44126;SDS011;29786;50.798;7.302;2022-12-07T03:14:23;324.1;;;81.6;;
44126;SDS011;29786;50.798;7.302;2022-12-07T03:15:28;369;;;86.5;;
44126;SDS011;29786;50.798;7.302;2022-12-07T03:16:26;452.6;;;93;;
44126;SDS011;29786;50.798;7.302;2022-12-07T03:17:24;473.8;;;93.8;;
44126;SDS011;29786;50.798;7.302;2022-12-07T03:18:22;586.6;;;99.1;;
44126;SDS011;29786;50.798;7.302;2022-12-07T03:19:22;704.9;;;110.7;;
44126;SDS011;29786;50.798;7.302;2022-12-07T03:20:22;366.9;;;85.3;;
44126;SDS011;29786;50.798;7.302;2022-12-07T03:21:23;333;;;78.8;;
44126;SDS011;29786;50.798;7.302;2022-12-07T03:22:22;264.2;;;76.7;;
44126;SDS011;29786;50.798;7.302;2022-12-07T03:23:22;336.3;;;81;;
44126;SDS011;29786;50.798;7.302;2022-12-07T03:24:23;338.9;;;79.3;;
44126;SDS011;29786;50.798;7.302;2022-12-07T03:25:22;397;;;86.3;;
44126;SDS011;29786;50.798;7.302;2022-12-07T03:26:23;458.5;;;90.1;;
44126;SDS011;29786;50.798;7.302;2022-12-07T03:27:24;389.9;;;87.3;;
44126;SDS011;29786;50.798;7.302;2022-12-07T03:28:22;433;;;91.9;;
44126;SDS011;29786;50.798;7.302;2022-12-07T03:29:24;336.6;;;80.9;;
44126;SDS011;29786;50.798;7.302;2022-12-07T03:30:22;419.8;;;87.8;;
44126;SDS011;29786;50.798;7.302;2022-12-07T03:31:22;438.3;;;91.1;;
44126;SDS011;29786;50.798;7.302;2022-12-07T03:32:24;339.2;;;83.9;;
44126;SDS011;29786;50.798;7.302;2022-12-07T03:33:23;316.6;;;81.5;;
44126;SDS011;29786;50.798;7.302;2022-12-07T03:34:25;429.4;;;90.5;;
44126;SDS011;29786;50.798;7.302;2022-12-07T03:35:27;373.4;;;85.3;;
44126;SDS011;29786;50.798;7.302;2022-12-07T03:36:24;540.3;;;100.8;;
44126;SDS011;29786;50.798;7.302;2022-12-07T03:37:33;585.1;;;105.5;;
44126;SDS011;29786;50.798;7.302;2022-12-07T03:38:23;344;;;85.2;;
44126;SDS011;29786;50.798;7.302;2022-12-07T03:39:26;389.1;;;86.2;;
44126;SDS011;29786;50.798;7.302;2022-12-07T03:40:27;340.8;;;83.6;;
44126;SDS011;29786;50.798;7.302;2022-12-07T03:41:24;327.2;;;83.8;;
44126;SDS011;29786;50.798;7.302;2022-12-07T03:42:22;351.1;;;84.4;;
44126;SDS011;29786;50.798;7.302;2022-12-07T03:43:22;426.5;;;88.4;;
44126;SDS011;29786;50.798;7.302;2022-12-07T03:44:22;333.1;;;83;;
44126;SDS011;29786;50.798;7.302;2022-12-07T03:45:23;456.9;;;89.9;;
44126;SDS011;29786;50.798;7.302;2022-12-07T03:46:34;312.5;;;81.4;;
44126;SDS011;29786;50.798;7.302;2022-12-07T03:48:22;301.5;;;82.1;;
44126;SDS011;29786;50.798;7.302;2022-12-07T03:48:29;303.4;;;81.8;;
44126;SDS011;29786;50.798;7.302;2022-12-07T03:49:23;285.7;;;79.9;;
44126;SDS011;29786;50.798;7.302;2022-12-07T03:50:25;290.5;;;78.7;;
44126;SDS011;29786;50.798;7.302;2022-12-07T03:52:25;279.4;;;79.8;;
44126;SDS011;29786;50.798;7.302;2022-12-07T03:52:27;297.5;;;79;;
44126;SDS011;29786;50.798;7.302;2022-12-07T03:53:23;373.8;;;86;;
44126;SDS011;29786;50.798;7.302;2022-12-07T03:54:25;380.3;;;92.4;;
44126;SDS011;29786;50.798;7.302;2022-12-07T03:55:25;322.9;;;79.3;;
44126;SDS011;29786;50.798;7.302;2022-12-07T03:56:22;389.2;;;87.1;;
44126;SDS011;29786;50.798;7.302;2022-12-07T03:57:22;336.6;;;83.8;;
44126;SDS011;29786;50.798;7.302;2022-12-07T03:58:22;368.2;;;86.8;;
44126;SDS011;29786;50.798;7.302;2022-12-07T03:59:22;358.2;;;80.2;;
44126;SDS011;29786;50.798;7.302;2022-12-07T04:00:22;332.1;;;82.1;;
44126;SDS011;29786;50.798;7.302;2022-12-07T04:01:22;289.2;;;79.6;;
44126;SDS011;29786;50.798;7.302;2022-12-07T04:02:22;242.6;;;70.8;;
44126;SDS011;29786;50.798;7.302;2022-12-07T04:03:22;253.4;;;74.7;;
44126;SDS011;29786;50.798;7.302;2022-12-07T04:04:23;263.4;;;73.5;;
44126;SDS011;29786;50.798;7.302;2022-12-07T04:05:22;233;;;69.8;;
44126;SDS011;29786;50.798;7.302;2022-12-07T04:06:22;215.6;;;67.1;;
44126;SDS011;29786;50.798;7.302;2022-12-07T04:07:22;206.4;;;65;;
44126;SDS011;29786;50.798;7.302;2022-12-07T04:08:22;205.6;;;63.8;;
44126;SDS011;29786;50.798;7.302;2022-12-07T04:09:22;196.4;;;64.9;;
44126;SDS011;29786;50.798;7.302;2022-12-07T04:10:22;232.5;;;69.6;;
44126;SDS011;29786;50.798;7.302;2022-12-07T04:11:22;255.5;;;71;;
44126;SDS011;29786;50.798;7.302;2022-12-07T04:12:22;250.8;;;68.9;;
44126;SDS011;29786;50.798;7.302;2022-12-07T04:13:22;242;;;69.1;;
44126;SDS011;29786;50.798;7.302;2022-12-07T04:14:22;223.6;;;69.3;;
44126;SDS011;29786;50.798;7.302;2022-12-07T04:15:22;242.3;;;69.1;;
44126;SDS011;29786;50.798;7.302;2022-12-07T04:16:22;264.7;;;72.2;;
44126;SDS011;29786;50.798;7.302;2022-12-07T04:17:22;277.6;;;74.9;;
44126;SDS011;29786;50.798;7.302;2022-12-07T04:18:21;243.9;;;71.9;;
44126;SDS011;29786;50.798;7.302;2022-12-07T04:19:22;247.7;;;71.5;;
44126;SDS011;29786;50.798;7.302;2022-12-07T04:20:22;256.3;;;73.1;;
44126;SDS011;29786;50.798;7.302;2022-12-07T04:21:22;287.7;;;72;;
44126;SDS011;29786;50.798;7.302;2022-12-07T04:22:22;243;;;69.1;;
44126;SDS011;29786;50.798;7.302;2022-12-07T04:23:22;252.5;;;68.9;;
44126;SDS011;29786;50.798;7.302;2022-12-07T04:24:22;278.3;;;72.5;;
44126;SDS011;29786;50.798;7.302;2022-12-07T04:25:22;255.7;;;71.2;;
44126;SDS011;29786;50.798;7.302;2022-12-07T04:26:21;203.3;;;64.7;;
44126;SDS011;29786;50.798;7.302;2022-12-07T04:27:22;246;;;69.5;;
44126;SDS011;29786;50.798;7.302;2022-12-07T04:28:22;249.3;;;66.7;;
44126;SDS011;29786;50.798;7.302;2022-12-07T04:29:22;248.1;;;67.4;;
44126;SDS011;29786;50.798;7.302;2022-12-07T04:30:22;253.5;;;69.6;;
44126;SDS011;29786;50.798;7.302;2022-12-07T04:31:22;231.7;;;69.3;;
44126;SDS011;29786;50.798;7.302;2022-12-07T04:32:22;251.3;;;70.3;;
44126;SDS011;29786;50.798;7.302;2022-12-07T04:33:22;282.4;;;71.6;;
44126;SDS011;29786;50.798;7.302;2022-12-07T04:34:22;285.7;;;72.6;;
44126;SDS011;29786;50.798;7.302;2022-12-07T04:35:22;351.9;;;77.4;;
44126;SDS011;29786;50.798;7.302;2022-12-07T04:36:22;299;;;73.5;;
44126;SDS011;29786;50.798;7.302;2022-12-07T04:37:22;239.5;;;65.1;;
44126;SDS011;29786;50.798;7.302;2022-12-07T04:38:22;252.4;;;68.8;;
44126;SDS011;29786;50.798;7.302;2022-12-07T04:39:24;296.4;;;72.5;;
44126;SDS011;29786;50.798;7.302;2022-12-07T04:40:22;265.3;;;69.1;;
44126;SDS011;29786;50.798;7.302;2022-12-07T04:41:22;221.8;;;65.3;;
44126;SDS011;29786;50.798;7.302;2022-12-07T04:42:22;283;;;72;;
44126;SDS011;29786;50.798;7.302;2022-12-07T04:43:22;325.4;;;75;;
44126;SDS011;29786;50.798;7.302;2022-12-07T04:44:22;259.1;;;67.4;;
44126;SDS011;29786;50.798;7.302;2022-12-07T04:45:22;233.2;;;66;;
44126;SDS011;29786;50.798;7.302;2022-12-07T04:46:22;264.1;;;70.7;;
44126;SDS011;29786;50.798;7.302;2022-12-07T04:47:22;249.4;;;66.4;;
44126;SDS011;29786;50.798;7.302;2022-12-07T04:48:22;236.1;;;67.5;;
44126;SDS011;29786;50.798;7.302;2022-12-07T04:49:22;214.9;;;65;;
44126;SDS011;29786;50.798;7.302;2022-12-07T04:50:22;243.4;;;65.6;;
44126;SDS011;29786;50.798;7.302;2022-12-07T04:51:23;272.8;;;67.8;;
44126;SDS011;29786;50.798;7.302;2022-12-07T04:52:22;256.9;;;69.4;;
44126;SDS011;29786;50.798;7.302;2022-12-07T04:53:22;215.8;;;62;;
44126;SDS011;29786;50.798;7.302;2022-12-07T04:54:22;202.1;;;60;;
44126;SDS011;29786;50.798;7.302;2022-12-07T04:55:22;242.8;;;66.2;;
44126;SDS011;29786;50.798;7.302;2022-12-07T04:56:22;231.8;;;63.3;;
44126;SDS011;29786;50.798;7.302;2022-12-07T04:57:22;196.5;;;60.4;;
44126;SDS011;29786;50.798;7.302;2022-12-07T04:58:22;205;;;58;;
44126;SDS011;29786;50.798;7.302;2022-12-07T04:59:22;187.1;;;56.5;;
44126;SDS011;29786;50.798;7.302;2022-12-07T05:00:22;265.9;;;66.9;;
44126;SDS011;29786;50.798;7.302;2022-12-07T05:01:22;296.6;;;69.7;;
44126;SDS011;29786;50.798;7.302;2022-12-07T05:02:22;202.6;;;59.9;;
44126;SDS011;29786;50.798;7.302;2022-12-07T05:03:21;208.2;;;59.4;;
44126;SDS011;29786;50.798;7.302;2022-12-07T05:04:22;197.9;;;59;;
44126;SDS011;29786;50.798;7.302;2022-12-07T05:05:22;179.1;;;56.7;;
44126;SDS011;29786;50.798;7.302;2022-12-07T05:06:22;178.2;;;58.4;;
44126;SDS011;29786;50.798;7.302;2022-12-07T05:07:22;188.2;;;58.3;;
44126;SDS011;29786;50.798;7.302;2022-12-07T05:08:22;179;;;56.6;;
44126;SDS011;29786;50.798;7.302;2022-12-07T05:09:22;169.3;;;54.5;;
44126;SDS011;29786;50.798;7.302;2022-12-07T05:10:22;179.9;;;56.8;;
44126;SDS011;29786;50.798;7.302;2022-12-07T05:11:21;197;;;57.9;;
44126;SDS011;29786;50.798;7.302;2022-12-07T05:12:21;176.2;;;55.6;;
44126;SDS011;29786;50.798;7.302;2022-12-07T05:13:21;155.7;;;50.1;;
44126;SDS011;29786;50.798;7.302;2022-12-07T05:14:22;152.7;;;51.7;;
44126;SDS011;29786;50.798;7.302;2022-12-07T05:15:22;156.3;;;50.5;;
44126;SDS011;29786;50.798;7.302;2022-12-07T05:16:22;126.9;;;46.1;;
44126;SDS011;29786;50.798;7.302;2022-12-07T05:17:22;133.7;;;46.4;;
44126;SDS011;29786;50.798;7.302;2022-12-07T05:18:22;143.2;;;49.4;;
44126;SDS011;29786;50.798;7.302;2022-12-07T05:19:22;116.8;;;43.2;;
44126;SDS011;29786;50.798;7.302;2022-12-07T05:20:22;134.7;;;46.2;;
44126;SDS011;29786;50.798;7.302;2022-12-07T05:21:22;129.7;;;45.6;;
44126;SDS011;29786;50.798;7.302;2022-12-07T05:22:22;138.8;;;47.8;;
44126;SDS011;29786;50.798;7.302;2022-12-07T05:23:22;145.6;;;49.3;;
44126;SDS011;29786;50.798;7.302;2022-12-07T05:24:22;143.3;;;49.3;;
44126;SDS011;29786;50.798;7.302;2022-12-07T05:25:22;153.3;;;48.6;;
44126;SDS011;29786;50.798;7.302;2022-12-07T05:26:22;158.7;;;50.3;;
44126;SDS011;29786;50.798;7.302;2022-12-07T05:27:22;163.1;;;52.3;;
44126;SDS011;29786;50.798;7.302;2022-12-07T05:28:22;150.8;;;51.8;;
44126;SDS011;29786;50.798;7.302;2022-12-07T05:29:22;159.6;;;51.6;;
44126;SDS011;29786;50.798;7.302;2022-12-07T05:30:22;174;;;53.5;;
44126;SDS011;29786;50.798;7.302;2022-12-07T05:31:22;168.7;;;54.3;;
44126;SDS011;29786;50.798;7.302;2022-12-07T05:32:22;195.6;;;57.1;;
44126;SDS011;29786;50.798;7.302;2022-12-07T05:33:22;197.6;;;58.1;;
44126;SDS011;29786;50.798;7.302;2022-12-07T05:34:22;232.1;;;61;;
44126;SDS011;29786;50.798;7.302;2022-12-07T05:35:21;257.6;;;61.7;;
44126;SDS011;29786;50.798;7.302;2022-12-07T05:36:22;241.9;;;61.4;;
44126;SDS011;29786;50.798;7.302;2022-12-07T05:37:21;266.1;;;64.2;;
44126;SDS011;29786;50.798;7.302;2022-12-07T05:38:22;240.8;;;63;;
44126;SDS011;29786;50.798;7.302;2022-12-07T05:39:22;222.1;;;61.6;;
44126;SDS011;29786;50.798;7.302;2022-12-07T05:40:22;209;;;58.5;;
44126;SDS011;29786;50.798;7.302;2022-12-07T05:41:22;211.7;;;61.2;;
44126;SDS011;29786;50.798;7.302;2022-12-07T05:42:22;231;;;62.5;;
44126;SDS011;29786;50.798;7.302;2022-12-07T05:43:21;220.8;;;60.3;;
44126;SDS011;29786;50.798;7.302;2022-12-07T05:44:22;191.4;;;58.5;;
44126;SDS011;29786;50.798;7.302;2022-12-07T05:45:22;215.2;;;62.4;;
44126;SDS011;29786;50.798;7.302;2022-12-07T05:46:22;180.9;;;58.4;;
44126;SDS011;29786;50.798;7.302;2022-12-07T05:47:22;216;;;61.4;;
44126;SDS011;29786;50.798;7.302;2022-12-07T05:48:22;215.6;;;60.3;;
44126;SDS011;29786;50.798;7.302;2022-12-07T05:49:22;220.4;;;61.3;;
44126;SDS011;29786;50.798;7.302;2022-12-07T05:50:22;250.4;;;63.5;;
44126;SDS011;29786;50.798;7.302;2022-12-07T05:51:22;242.5;;;64;;
44126;SDS011;29786;50.798;7.302;2022-12-07T05:52:22;247.2;;;66.3;;
44126;SDS011;29786;50.798;7.302;2022-12-07T05:53:22;242.4;;;64.2;;
44126;SDS011;29786;50.798;7.302;2022-12-07T05:54:22;220.3;;;60.8;;
44126;SDS011;29786;50.798;7.302;2022-12-07T05:55:22;190.7;;;56.9;;
44126;SDS011;29786;50.798;7.302;2022-12-07T05:56:22;203.8;;;60.2;;
44126;SDS011;29786;50.798;7.302;2022-12-07T05:57:22;180.2;;;57.1;;
44126;SDS011;29786;50.798;7.302;2022-12-07T05:58:21;193.5;;;59.4;;
44126;SDS011;29786;50.798;7.302;2022-12-07T05:59:22;210.5;;;61.3;;
44126;SDS011;29786;50.798;7.302;2022-12-07T06:00:22;225.9;;;59;;
44126;SDS011;29786;50.798;7.302;2022-12-07T06:01:22;232;;;63.6;;